Terminal Aerodrome Forecast
Issued by NWS

Home | Current Version | Previous Version | Text Only | Print | Product List | Glossary On
Versions: 1 2 3 4 5 6 7 8 9 10 11 12 13 14 15 16
000
FTUS45 KRIW 241700
TAFRKS
TAF
KRKS 241725Z 2418/2518 21022G32KT P6SM VCTS FEW050 SCT080CB BKN120
     FM242000 24022G32KT P6SM VCTS FEW050 SCT080CB BKN120
      TEMPO 2420/2423 VRB30G40KT -TSRA BKN080CB
     FM250000 25015G25KT P6SM SCT110
     FM250300 25010KT P6SM FEW120=

USA.gov is the U.S. government's official web portal to all federal, state and local government web resources and services.